Time;durP1;ratioP1;P1;durP2;ratioP2;P2;SDS_P1;SDS_P2;PMS_P1;PMS_P2;Temp;Humidity;BMP_temperature;BMP_pressure;BME280_temperature;BME280_humidity;BME280_pressure;Samples;Min_cycle;Max_cycle;Signal;HPM_P1;HPM_P2
2022/07/15 00:01:55;;;;;;;6.95;1.90;;;14.70;87.40;;;;;;5032279;28;20132;-43
2022/07/15 00:04:24;;;;;;;10.18;2.05;;;14.70;87.50;;;;;;5034063;28;20466;-43
2022/07/15 00:06:50;;;;;;;7.00;1.95;;;14.70;87.80;;;;;;5030543;28;20079;-43
2022/07/15 00:09:17;;;;;;;8.15;2.25;;;14.70;87.80;;;;;;5031745;28;20076;-44
2022/07/15 00:11:44;;;;;;;10.93;2.15;;;14.70;88.30;;;;;;5031010;28;20049;-43
2022/07/15 00:14:11;;;;;;;5.15;1.90;;;14.70;88.50;;;;;;5032458;28;20059;-44
2022/07/15 00:16:38;;;;;;;6.47;1.80;;;14.70;88.70;;;;;;5030564;28;20402;-43
2022/07/15 00:19:04;;;;;;;9.13;2.30;;;14.70;88.90;;;;;;5032340;28;20128;-43
2022/07/15 00:21:33;;;;;;;7.90;2.33;;;14.70;89.30;;;;;;5032542;28;20081;-44
2022/07/15 00:24:00;;;;;;;5.82;1.80;;;14.70;89.90;;;;;;5032898;28;20053;-42
2022/07/15 00:26:26;;;;;;;8.82;2.22;;;14.70;89.60;;;;;;5033381;28;20056;-42
2022/07/15 00:28:53;;;;;;;10.80;2.25;;;14.60;89.50;;;;;;5031154;28;20473;-42
2022/07/15 00:31:20;;;;;;;4.55;1.73;;;14.70;89.90;;;;;;5033545;28;20084;-42
2022/07/15 00:33:47;;;;;;;8.02;1.90;;;14.70;90.10;;;;;;5032017;28;20277;-42
2022/07/15 00:36:14;;;;;;;10.00;2.00;;;14.70;90.20;;;;;;5033283;28;20053;-43
2022/07/15 00:38:42;;;;;;;11.20;1.83;;;14.70;90.30;;;;;;5031991;28;20147;-42
2022/07/15 00:41:09;;;;;;;6.15;1.73;;;14.70;90.50;;;;;;5030467;28;20128;-43
2022/07/15 00:43:36;;;;;;;8.38;1.98;;;14.70;90.40;;;;;;5031718;28;20064;-43
2022/07/15 00:46:02;;;;;;;7.95;1.80;;;14.70;90.60;;;;;;5032093;28;20103;-43
2022/07/15 00:48:29;;;;;;;10.68;2.15;;;14.70;90.80;;;;;;5030141;28;20085;-43
2022/07/15 00:50:56;;;;;;;8.60;2.05;;;14.60;91.10;;;;;;5031726;28;20107;-42
2022/07/15 00:53:23;;;;;;;9.10;2.20;;;14.60;91.20;;;;;;5031522;28;20059;-42
2022/07/15 00:55:51;;;;;;;6.30;2.03;;;14.60;91.30;;;;;;5030161;28;20164;-43
2022/07/15 00:58:19;;;;;;;9.98;2.03;;;14.60;91.20;;;;;;5031117;28;20065;-43
2022/07/15 01:00:46;;;;;;;8.63;1.98;;;14.60;91.20;;;;;;5032544;28;20141;-43
2022/07/15 01:03:12;;;;;;;7.50;1.95;;;14.60;91.30;;;;;;5031265;28;20520;-43
2022/07/15 01:05:39;;;;;;;8.48;2.20;;;14.60;91.30;;;;;;5031139;28;20132;-43
2022/07/15 01:08:06;;;;;;;7.93;1.83;;;14.60;91.30;;;;;;5028861;28;20045;-43
2022/07/15 01:10:33;;;;;;;6.95;1.55;;;14.60;91.70;;;;;;5030530;28;20049;-43
2022/07/15 01:13:02;;;;;;;9.10;2.03;;;14.60;91.90;;;;;;5031924;28;20096;-41
2022/07/15 01:15:31;;;;;;;11.48;2.97;;;14.60;92.10;;;;;;5030564;28;20081;-42
2022/07/15 01:17:57;;;;;;;7.60;1.77;;;14.50;92.60;;;;;;5030400;28;20576;-42
2022/07/15 01:20:24;;;;;;;9.77;2.55;;;14.50;92.80;;;;;;5032748;28;20046;-42
2022/07/15 01:22:52;;;;;;;9.10;2.25;;;14.50;93.20;;;;;;5031719;28;20133;-43
2022/07/15 01:25:19;;;;;;;9.90;2.33;;;14.50;93.40;;;;;;5032762;28;20077;-42
2022/07/15 01:27:46;;;;;;;9.57;2.03;;;14.50;93.60;;;;;;5028637;28;20091;-43
2022/07/15 01:30:12;;;;;;;8.73;1.90;;;14.60;93.70;;;;;;5030621;28;20076;-43
2022/07/15 01:32:39;;;;;;;10.85;2.42;;;14.60;93.80;;;;;;5029180;28;20460;-42
2022/07/15 01:35:07;;;;;;;17.48;2.10;;;14.60;94.00;;;;;;5032593;28;20149;-43
2022/07/15 01:37:34;;;;;;;11.52;2.40;;;14.70;94.20;;;;;;5031767;28;20049;-43
2022/07/15 01:40:02;;;;;;;9.20;1.80;;;14.70;94.20;;;;;;5031813;28;20049;-42
2022/07/15 01:42:29;;;;;;;8.45;1.83;;;14.70;94.40;;;;;;5030464;28;20088;-43
2022/07/15 01:44:55;;;;;;;10.15;2.05;;;14.70;94.50;;;;;;5030777;28;20092;-43
2022/07/15 01:47:22;;;;;;;10.02;1.98;;;14.70;94.60;;;;;;5030816;28;20104;-43
2022/07/15 01:49:49;;;;;;;11.75;2.80;;;14.70;94.40;;;;;;5028228;28;20081;-44
2022/07/15 01:52:17;;;;;;;8.68;2.05;;;14.70;94.60;;;;;;5031620;28;20041;-44
2022/07/15 01:54:44;;;;;;;9.45;2.05;;;14.70;94.50;;;;;;5031700;28;20500;-44
2022/07/15 01:57:12;;;;;;;10.10;2.90;;;14.70;94.80;;;;;;5030090;28;20080;-44
2022/07/15 01:59:39;;;;;;;12.50;3.05;;;14.70;94.70;;;;;;5031325;28;20046;-44
2022/07/15 02:02:05;;;;;;;7.15;2.05;;;14.70;95.00;;;;;;5031823;28;20128;-44
2022/07/15 02:04:32;;;;;;;9.75;2.35;;;14.70;95.00;;;;;;5027001;28;20128;-44
2022/07/15 02:06:59;;;;;;;11.45;2.33;;;14.70;95.00;;;;;;5033920;28;20140;-44
2022/07/15 02:09:25;;;;;;;12.20;2.58;;;14.70;95.10;;;;;;5034048;28;20056;-44
2022/07/15 02:11:52;;;;;;;8.63;1.90;;;14.70;95.10;;;;;;5036137;28;20058;-43
2022/07/15 02:14:20;;;;;;;8.85;1.92;;;14.70;95.20;;;;;;5035022;28;20136;-43
2022/07/15 02:16:47;;;;;;;6.70;1.73;;;14.70;95.10;;;;;;5035440;28;20059;-43
2022/07/15 02:19:14;;;;;;;11.55;2.13;;;14.60;94.90;;;;;;5034301;28;20081;-43
2022/07/15 02:21:40;;;;;;;12.55;2.33;;;14.60;94.90;;;;;;5033888;28;20057;-43
2022/07/15 02:24:07;;;;;;;7.93;1.75;;;14.60;94.90;;;;;;5034251;28;20458;-44
2022/07/15 02:26:34;;;;;;;9.05;1.88;;;14.60;94.80;;;;;;5033829;28;20139;-44
2022/07/15 02:29:01;;;;;;;9.27;2.00;;;14.60;94.90;;;;;;5034952;28;20053;-43
2022/07/15 02:31:29;;;;;;;12.60;1.98;;;14.50;94.80;;;;;;5034418;28;20533;-43
2022/07/15 02:33:55;;;;;;;7.57;1.85;;;14.50;94.90;;;;;;5034795;28;20124;-44
2022/07/15 02:36:22;;;;;;;9.93;1.88;;;14.50;94.80;;;;;;5035087;28;20124;-43
2022/07/15 02:38:49;;;;;;;5.60;1.65;;;14.50;95.00;;;;;;5032454;28;20089;-43
2022/07/15 02:41:16;;;;;;;8.43;1.80;;;14.40;95.00;;;;;;5035673;28;20091;-43
2022/07/15 02:43:43;;;;;;;11.18;2.13;;;14.40;94.90;;;;;;5032813;28;20136;-43
2022/07/15 02:46:10;;;;;;;6.88;2.10;;;14.40;94.90;;;;;;5033688;28;20049;-43
2022/07/15 02:48:38;;;;;;;7.97;2.05;;;14.30;95.10;;;;;;5032881;28;20056;-43
2022/07/15 02:51:05;;;;;;;7.72;2.20;;;14.30;95.00;;;;;;5033833;28;20071;-43
2022/07/15 02:53:32;;;;;;;7.32;1.50;;;14.30;95.00;;;;;;5032226;28;20049;-43
2022/07/15 02:55:59;;;;;;;8.90;1.92;;;14.30;94.80;;;;;;5032570;28;20136;-43
2022/07/15 02:58:26;;;;;;;6.47;1.80;;;14.20;95.00;;;;;;5033173;28;20513;-43
2022/07/15 03:00:53;;;;;;;8.95;1.92;;;14.20;95.10;;;;;;5035130;28;20088;-43
2022/07/15 03:03:20;;;;;;;8.40;1.95;;;14.20;95.20;;;;;;5034427;28;20146;-43
2022/07/15 03:05:48;;;;;;;6.97;1.80;;;14.10;95.20;;;;;;5033380;28;20080;-42
2022/07/15 03:08:15;;;;;;;9.23;2.10;;;14.10;95.10;;;;;;5032868;28;20041;-43
2022/07/15 03:10:41;;;;;;;5.55;1.73;;;14.00;94.90;;;;;;5034617;28;20080;-43
2022/07/15 03:13:08;;;;;;;6.72;1.88;;;14.00;95.00;;;;;;5034718;28;20504;-42
2022/07/15 03:15:35;;;;;;;5.60;1.70;;;13.90;95.00;;;;;;5033856;28;20049;-43
2022/07/15 03:18:02;;;;;;;7.53;1.95;;;13.90;95.00;;;;;;5032544;28;20589;-43
2022/07/15 03:20:29;;;;;;;5.90;1.60;;;13.90;95.00;;;;;;5034325;28;20457;-43
2022/07/15 03:22:57;;;;;;;5.63;2.00;;;13.90;94.90;;;;;;5032863;28;20385;-42
2022/07/15 03:25:24;;;;;;;6.47;1.77;;;13.90;94.90;;;;;;5034983;28;20478;-43
2022/07/15 03:27:51;;;;;;;7.57;1.55;;;13.80;95.00;;;;;;5033479;28;20132;-43
2022/07/15 03:30:20;;;;;;;11.13;1.90;;;13.80;94.90;;;;;;5032926;28;20138;-43
2022/07/15 03:32:47;;;;;;;8.32;2.33;;;13.80;94.80;;;;;;5032395;28;20057;-43
2022/07/15 03:35:13;;;;;;;9.73;2.10;;;13.70;94.90;;;;;;5033116;28;20072;-43
2022/07/15 03:37:40;;;;;;;7.18;1.83;;;13.80;95.10;;;;;;5033713;28;20605;-43
2022/07/15 03:40:09;;;;;;;9.85;2.08;;;13.70;95.20;;;;;;5034637;28;20045;-43
2022/07/15 03:42:36;;;;;;;12.98;2.13;;;13.70;95.20;;;;;;5033654;28;20095;-43
2022/07/15 03:45:03;;;;;;;7.88;2.42;;;13.60;95.20;;;;;;5032373;28;20517;-43
2022/07/15 03:47:30;;;;;;;8.43;1.65;;;13.60;95.20;;;;;;5032774;28;20143;-43
2022/07/15 03:49:57;;;;;;;8.32;2.08;;;13.60;95.10;;;;;;5033974;28;20136;-44
2022/07/15 03:52:23;;;;;;;9.40;1.88;;;13.60;95.10;;;;;;5032296;28;20132;-43
2022/07/15 03:54:50;;;;;;;9.63;2.20;;;13.50;95.00;;;;;;5032176;28;20503;-42
2022/07/15 03:57:18;;;;;;;5.90;1.75;;;13.50;95.10;;;;;;5028975;28;20060;-43
2022/07/15 03:59:45;;;;;;;7.07;2.00;;;13.50;95.40;;;;;;5033131;28;20140;-42
2022/07/15 04:02:12;;;;;;;8.98;2.45;;;13.50;95.10;;;;;;5032749;28;20508;-43
2022/07/15 04:04:39;;;;;;;10.40;2.22;;;13.50;95.20;;;;;;5032861;28;20195;-43
2022/07/15 04:07:06;;;;;;;4.45;1.73;;;13.50;95.30;;;;;;5032978;28;20099;-44
2022/07/15 04:09:32;;;;;;;8.82;1.92;;;13.40;95.20;;;;;;5033110;28;20045;-43
2022/07/15 04:11:59;;;;;;;9.70;2.00;;;13.40;95.00;;;;;;5032131;28;20132;-44
2022/07/15 04:14:27;;;;;;;8.35;1.90;;;13.40;95.40;;;;;;5033844;28;20100;-44
2022/07/15 04:16:54;;;;;;;10.13;2.15;;;13.40;95.40;;;;;;5032860;28;20456;-42
2022/07/15 04:19:21;;;;;;;6.60;1.92;;;13.40;95.60;;;;;;5031944;28;20136;-43
2022/07/15 04:21:48;;;;;;;8.10;2.28;;;13.40;95.60;;;;;;5031622;28;20124;-43
2022/07/15 04:24:14;;;;;;;10.90;2.10;;;13.40;95.40;;;;;;5032946;28;20095;-45
2022/07/15 04:26:42;;;;;;;8.15;2.05;;;13.40;95.50;;;;;;5032082;28;20120;-44
2022/07/15 04:29:08;;;;;;;9.98;2.13;;;13.30;95.70;;;;;;5032072;28;20050;-44
2022/07/15 04:31:36;;;;;;;9.35;2.20;;;13.30;96.00;;;;;;5031620;28;20053;-44
2022/07/15 04:34:03;;;;;;;9.02;1.90;;;13.30;95.70;;;;;;5030837;28;20133;-44
2022/07/15 04:36:30;;;;;;;6.38;2.13;;;13.30;95.70;;;;;;5032508;28;20128;-43
2022/07/15 04:38:57;;;;;;;6.75;1.67;;;13.30;95.60;;;;;;5021942;28;20081;-42
2022/07/15 04:41:23;;;;;;;6.90;1.77;;;13.30;95.60;;;;;;5022787;28;20387;-44
2022/07/15 04:43:50;;;;;;;8.32;2.10;;;13.20;95.80;;;;;;5030926;28;20144;-43
2022/07/15 04:46:17;;;;;;;10.27;2.40;;;13.30;95.80;;;;;;5029819;28;20131;-43
2022/07/15 04:51:29;;;;;;;7.18;2.10;;;13.30;96.20;;;;;;5031211;28;20057;-43
2022/07/15 04:53:56;;;;;;;6.05;1.80;;;13.40;96.10;;;;;;5031351;28;20055;-43
2022/07/15 04:56:23;;;;;;;8.48;2.40;;;13.40;96.00;;;;;;5030499;28;20056;-43
2022/07/15 04:58:50;;;;;;;10.23;2.22;;;13.40;96.30;;;;;;5030633;28;20441;-44
2022/07/15 05:01:16;;;;;;;8.38;2.17;;;13.50;96.80;;;;;;5028247;28;20064;-44
2022/07/15 05:03:44;;;;;;;7.15;2.08;;;13.50;96.80;;;;;;5030931;28;20066;-44
2022/07/15 05:06:11;;;;;;;7.07;2.40;;;13.60;97.00;;;;;;5013040;28;20502;-43
2022/07/15 05:08:38;;;;;;;10.32;2.30;;;13.70;97.40;;;;;;5031229;28;20045;-44
2022/07/15 05:11:05;;;;;;;13.05;2.85;;;13.70;97.50;;;;;;5028628;28;20073;-43
2022/07/15 05:13:32;;;;;;;10.38;2.00;;;13.70;97.80;;;;;;5031024;28;20042;-43
2022/07/15 05:15:59;;;;;;;7.88;1.67;;;13.70;97.90;;;;;;5032082;28;20041;-44
2022/07/15 05:18:26;;;;;;;10.88;2.30;;;13.80;97.80;;;;;;5031962;28;20084;-44
2022/07/15 05:20:54;;;;;;;8.23;2.38;;;13.90;97.90;;;;;;5030272;28;20049;-44
2022/07/15 05:23:21;;;;;;;9.20;2.10;;;13.90;97.90;;;;;;5030430;28;20160;-44
2022/07/15 05:25:48;;;;;;;8.30;2.00;;;13.90;98.10;;;;;;5023371;28;20046;-43
2022/07/15 05:28:14;;;;;;;5.63;1.98;;;14.00;98.00;;;;;;5029367;28;20477;-44
2022/07/15 05:30:41;;;;;;;7.85;1.70;;;14.00;98.10;;;;;;5027487;28;20144;-43
2022/07/15 05:33:09;;;;;;;9.75;1.80;;;14.00;97.90;;;;;;5028457;28;20140;-44
2022/07/15 05:35:35;;;;;;;8.40;2.00;;;14.10;97.80;;;;;;5029471;28;20050;-43
2022/07/15 05:38:03;;;;;;;5.82;1.67;;;14.10;98.00;;;;;;5028071;28;20136;-43
2022/07/15 05:40:30;;;;;;;3.70;1.27;;;14.20;97.90;;;;;;5030113;28;20541;-43
2022/07/15 05:42:57;;;;;;;5.00;1.30;;;14.20;97.70;;;;;;5034056;28;20077;-43
2022/07/15 05:45:24;;;;;;;5.93;1.45;;;14.30;97.70;;;;;;5033828;28;20065;-43
2022/07/15 05:47:51;;;;;;;5.97;1.60;;;14.30;97.80;;;;;;5035766;28;20103;-44
2022/07/15 05:50:18;;;;;;;7.40;1.85;;;14.40;97.80;;;;;;5033739;28;20460;-44
2022/07/15 05:52:45;;;;;;;8.75;1.50;;;14.40;98.10;;;;;;5030842;28;20577;-44
2022/07/15 05:55:13;;;;;;;6.88;1.60;;;14.40;98.10;;;;;;5050144;28;20144;-43
2022/07/15 05:57:40;;;;;;;7.80;1.40;;;14.40;97.90;;;;;;5034006;28;20136;-43
2022/07/15 06:00:08;;;;;;;6.80;1.40;;;14.50;97.90;;;;;;5032951;28;20486;-43
2022/07/15 06:02:35;;;;;;;6.55;1.48;;;14.60;97.80;;;;;;5033111;28;20049;-44
2022/07/15 06:05:01;;;;;;;8.40;1.25;;;14.70;97.80;;;;;;5034491;28;20097;-43
2022/07/15 06:07:28;;;;;;;6.85;1.15;;;14.80;97.40;;;;;;5033680;28;20049;-44
2022/07/15 06:09:55;;;;;;;6.28;1.45;;;15.00;97.30;;;;;;5033104;28;20123;-43
2022/07/15 06:12:23;;;;;;;4.93;1.20;;;15.10;97.10;;;;;;5032783;28;20057;-44
2022/07/15 06:14:50;;;;;;;5.55;1.10;;;15.20;97.10;;;;;;5035103;28;20049;-43
2022/07/15 06:17:17;;;;;;;7.25;1.00;;;15.30;96.90;;;;;;5034195;28;20132;-43
2022/07/15 06:19:43;;;;;;;6.47;1.10;;;15.50;96.70;;;;;;5035766;28;20133;-44
2022/07/15 06:22:10;;;;;;;5.50;0.90;;;15.50;96.50;;;;;;5034235;28;20147;-43
2022/07/15 06:24:37;;;;;;;3.70;1.05;;;15.70;96.60;;;;;;5033422;28;20041;-43
2022/07/15 06:27:04;;;;;;;4.13;0.85;;;15.80;96.30;;;;;;5033470;28;20060;-43
2022/07/15 06:29:33;;;;;;;4.65;0.90;;;16.00;96.00;;;;;;5034450;28;20132;-42
2022/07/15 06:31:59;;;;;;;4.00;1.15;;;16.10;95.70;;;;;;5034270;28;20049;-43
2022/07/15 06:34:26;;;;;;;4.18;0.73;;;16.20;95.60;;;;;;5034131;28;20186;-42
2022/07/15 06:36:53;;;;;;;4.60;0.80;;;16.30;95.60;;;;;;5033377;28;20065;-42
2022/07/15 06:39:20;;;;;;;5.38;1.38;;;16.50;95.20;;;;;;5033294;28;20057;-42
2022/07/15 06:41:48;;;;;;;4.00;0.93;;;16.60;95.00;;;;;;5030883;28;20050;-43
2022/07/15 06:44:14;;;;;;;3.65;0.77;;;16.70;94.80;;;;;;5033841;28;20068;-43
2022/07/15 06:46:42;;;;;;;5.28;0.75;;;16.90;94.90;;;;;;5033398;28;20132;-43
2022/07/15 06:49:09;;;;;;;4.25;0.70;;;17.00;94.30;;;;;;5032829;28;20150;-43
2022/07/15 06:51:36;;;;;;;4.15;0.80;;;17.30;93.90;;;;;;5034146;28;20073;-43
2022/07/15 06:54:03;;;;;;;6.25;0.95;;;17.40;93.70;;;;;;5032315;28;20512;-42
2022/07/15 06:56:30;;;;;;;6.00;0.95;;;17.50;93.70;;;;;;5033832;28;20491;-43
2022/07/15 06:58:56;;;;;;;2.70;0.57;;;17.70;93.30;;;;;;5032121;28;20053;-42
2022/07/15 07:01:23;;;;;;;2.85;0.60;;;17.80;93.00;;;;;;5034377;28;20136;-42
2022/07/15 07:03:52;;;;;;;2.47;0.65;;;17.90;92.40;;;;;;5032113;28;21456;-42
2022/07/15 07:06:18;;;;;;;5.25;0.70;;;18.00;91.70;;;;;;5022054;28;20513;-43
2022/07/15 07:08:46;;;;;;;4.93;0.95;;;18.10;91.60;;;;;;5033415;28;20510;-42
2022/07/15 07:11:13;;;;;;;4.50;0.65;;;18.20;91.30;;;;;;5034701;28;20456;-41
2022/07/15 07:13:40;;;;;;;4.30;0.63;;;18.40;91.20;;;;;;5034068;28;20099;-43
2022/07/15 07:16:07;;;;;;;3.97;0.80;;;18.50;91.00;;;;;;5031797;28;20489;-42
2022/07/15 07:18:34;;;;;;;3.70;0.50;;;18.70;90.30;;;;;;5032615;28;20148;-42
2022/07/15 07:21:02;;;;;;;2.92;0.60;;;18.80;90.00;;;;;;5031821;28;20085;-43
2022/07/15 07:23:30;;;;;;;3.58;0.70;;;18.80;89.60;;;;;;5031480;28;20045;-43
2022/07/15 07:25:57;;;;;;;2.10;0.70;;;18.90;89.40;;;;;;5032990;28;20049;-42
2022/07/15 07:28:24;;;;;;;4.68;0.63;;;19.10;89.40;;;;;;5033320;28;20123;-42
2022/07/15 07:30:52;;;;;;;2.75;0.50;;;19.30;87.60;;;;;;5033896;28;20050;-43
2022/07/15 07:33:18;;;;;;;2.08;0.50;;;19.40;87.10;;;;;;5032317;28;20091;-43
2022/07/15 07:35:46;;;;;;;2.65;0.50;;;19.50;86.70;;;;;;5033630;28;20053;-43
2022/07/15 07:38:14;;;;;;;3.58;0.50;;;19.60;86.70;;;;;;5033024;28;20080;-42
2022/07/15 07:40:41;;;;;;;8.80;0.70;;;19.70;85.50;;;;;;5033245;28;20096;-42
2022/07/15 07:43:07;;;;;;;3.08;0.60;;;19.80;84.70;;;;;;5031136;28;20477;-42
2022/07/15 07:45:34;;;;;;;2.72;0.60;;;19.90;84.00;;;;;;5032139;28;20561;-43
2022/07/15 07:48:01;;;;;;;2.47;0.50;;;20.00;83.20;;;;;;5032004;28;20493;-43
2022/07/15 07:50:28;;;;;;;5.47;0.50;;;20.10;83.90;;;;;;5032935;28;20481;-43
2022/07/15 07:52:55;;;;;;;2.40;0.40;;;20.30;82.20;;;;;;5031140;28;20477;-42
2022/07/15 07:55:23;;;;;;;5.03;0.70;;;20.30;81.50;;;;;;5031811;28;20053;-42
2022/07/15 07:57:50;;;;;;;3.15;0.50;;;20.30;80.30;;;;;;5033219;28;20128;-42
2022/07/15 08:00:17;;;;;;;1.88;0.50;;;20.30;80.70;;;;;;5032845;28;20117;-42
2022/07/15 08:02:44;;;;;;;5.10;0.90;;;20.30;81.50;;;;;;5031306;28;20050;-42
2022/07/15 08:05:10;;;;;;;2.90;0.60;;;20.50;81.20;;;;;;5033318;28;20057;-43
2022/07/15 08:07:37;;;;;;;1.67;0.45;;;20.70;81.20;;;;;;5032173;28;20049;-43
2022/07/15 08:10:04;;;;;;;4.32;0.50;;;21.00;80.10;;;;;;5031653;28;20120;-42
2022/07/15 08:12:33;;;;;;;3.58;0.70;;;21.20;79.10;;;;;;5031926;28;20126;-42
2022/07/15 08:15:00;;;;;;;1.92;0.50;;;21.30;78.00;;;;;;5031833;28;20047;-43
2022/07/15 08:17:27;;;;;;;2.00;0.63;;;21.10;77.30;;;;;;5030703;28;20124;-43
2022/07/15 08:19:54;;;;;;;5.28;0.40;;;20.90;77.00;;;;;;5032307;28;20053;-42
2022/07/15 08:22:21;;;;;;;1.83;0.40;;;20.90;77.10;;;;;;5033347;28;20050;-43
2022/07/15 08:24:49;;;;;;;3.03;0.50;;;20.90;77.30;;;;;;5031204;28;20535;-42
2022/07/15 08:27:16;;;;;;;3.03;0.60;;;21.00;77.50;;;;;;5029458;28;20465;-43
2022/07/15 08:29:44;;;;;;;2.20;0.40;;;21.10;77.40;;;;;;5028776;28;20107;-42
2022/07/15 08:32:10;;;;;;;1.80;0.60;;;21.30;76.50;;;;;;5029622;28;20049;-42
2022/07/15 08:34:40;;;;;;;1.45;0.50;;;21.30;76.00;;;;;;5030958;28;20145;-43
2022/07/15 08:37:07;;;;;;;2.45;0.55;;;21.30;75.20;;;;;;5032115;28;20060;-42
2022/07/15 08:39:34;;;;;;;2.67;0.57;;;21.20;74.70;;;;;;5028825;28;20065;-42
2022/07/15 08:42:00;;;;;;;2.72;0.43;;;21.10;75.10;;;;;;5031302;28;20057;-43
2022/07/15 08:44:27;;;;;;;2.40;0.43;;;21.10;75.30;;;;;;5031604;28;20049;-43
2022/07/15 08:46:55;;;;;;;3.60;0.73;;;21.30;75.30;;;;;;5031344;28;20049;-42
2022/07/15 08:49:22;;;;;;;2.15;0.40;;;21.70;74.70;;;;;;5031604;28;20448;-43
2022/07/15 08:51:49;;;;;;;2.80;0.38;;;21.80;73.40;;;;;;5030633;28;20046;-43
2022/07/15 08:54:16;;;;;;;2.08;0.50;;;21.80;72.30;;;;;;5028031;28;20049;-43
2022/07/15 08:56:45;;;;;;;2.60;0.45;;;21.80;72.60;;;;;;5030638;28;20056;-43
2022/07/15 08:59:12;;;;;;;1.92;0.55;;;21.90;72.60;;;;;;5030738;28;20045;-42
2022/07/15 09:01:42;;;;;;;1.65;0.40;;;22.00;73.50;;;;;;5029980;28;20132;-43
2022/07/15 09:04:10;;;;;;;1.30;0.40;;;22.10;71.40;;;;;;5018878;28;20132;-43
2022/07/15 09:06:38;;;;;;;1.08;0.30;;;22.30;70.40;;;;;;5046932;28;20536;-43
2022/07/15 09:09:27;;;;;;;4.05;0.40;;;22.50;70.40;;;;;;5029439;28;20128;-43
2022/07/15 09:11:57;;;;;;;18.38;1.50;;;22.70;69.10;;;;;;5021442;28;20520;-44
2022/07/15 09:14:25;;;;;;;2.72;0.60;;;22.80;69.40;;;;;;5028264;28;20494;-43
2022/07/15 09:17:01;;;;;;;2.53;0.50;;;22.90;69.50;;;;;;5027901;28;20132;-43
2022/07/15 09:19:29;;;;;;;2.03;0.47;;;23.00;68.90;;;;;;5031761;28;20053;-43
2022/07/15 09:22:01;;;;;;;2.42;0.30;;;22.90;68.00;;;;;;5028022;28;20052;-41
2022/07/15 09:24:28;;;;;;;4.20;0.50;;;22.80;69.20;;;;;;5028056;28;20045;-44
2022/07/15 09:26:55;;;;;;;1.42;0.30;;;22.70;68.20;;;;;;5028358;28;20061;-44
2022/07/15 09:35:03;;;;;;;1.83;0.55;;;22.70;68.80;;;;;;5029775;28;20444;-42
2022/07/15 09:37:30;;;;;;;3.63;0.70;;;22.60;67.70;;;;;;5030818;28;20407;-42
2022/07/15 09:39:57;;;;;;;4.28;0.35;;;22.50;68.00;;;;;;5028765;28;20084;-42
2022/07/15 09:42:24;;;;;;;1.30;0.30;;;22.40;68.40;;;;;;5026740;28;20124;-43
2022/07/15 09:44:51;;;;;;;2.97;0.65;;;22.40;68.90;;;;;;5030117;28;20058;-43
2022/07/15 09:47:19;;;;;;;5.65;0.70;;;22.50;68.70;;;;;;5028946;28;20053;-43
2022/07/15 09:49:46;;;;;;;4.13;0.50;;;22.50;68.50;;;;;;5029096;28;20080;-43
2022/07/15 09:52:15;;;;;;;2.05;0.40;;;22.50;68.40;;;;;;5030776;28;20046;-43
2022/07/15 09:54:42;;;;;;;3.85;0.52;;;22.60;68.80;;;;;;5028852;28;20084;-43
2022/07/15 09:57:11;;;;;;;1.83;0.50;;;22.60;68.50;;;;;;5025425;28;20045;-44
2022/07/15 09:59:38;;;;;;;2.05;0.80;;;22.70;68.30;;;;;;5025592;28;20048;-43
2022/07/15 10:02:04;;;;;;;2.63;0.75;;;22.70;68.30;;;;;;5030632;28;20061;-43
2022/07/15 10:04:31;;;;;;;1.38;0.30;;;22.70;68.60;;;;;;5032087;28;20061;-43
2022/07/15 10:07:00;;;;;;;3.50;0.50;;;22.60;68.60;;;;;;5028917;28;20045;-43
2022/07/15 10:09:30;;;;;;;2.63;0.30;;;22.70;69.40;;;;;;5030578;28;20041;-43
2022/07/15 10:11:59;;;;;;;2.30;0.43;;;23.00;69.10;;;;;;5029450;28;20413;-42
2022/07/15 10:14:38;;;;;;;0.98;0.38;;;23.10;67.10;;;;;;5031945;28;20077;-42
2022/07/15 10:17:48;;;;;;;2.45;0.50;;;23.20;67.40;;;;;;5028056;28;20064;-42
2022/07/15 10:20:43;;;;;;;1.38;0.30;;;23.40;66.70;;;;;;5056019;28;20136;-43
2022/07/15 10:23:18;;;;;;;1.45;0.40;;;23.40;66.20;;;;;;5004921;28;20128;-43
2022/07/15 10:25:55;;;;;;;2.13;0.40;;;23.30;66.40;;;;;;5031242;28;20081;-43
2022/07/15 10:28:25;;;;;;;4.47;0.52;;;23.10;66.00;;;;;;5021205;28;20124;-43
2022/07/15 10:31:13;;;;;;;1.02;0.32;;;22.90;66.00;;;;;;5028923;28;20556;-43
2022/07/15 10:33:39;;;;;;;2.65;0.60;;;22.70;66.70;;;;;;5031501;28;20047;-43
2022/07/15 10:36:07;;;;;;;1.35;0.60;;;22.50;67.50;;;;;;5031680;28;20136;-43
2022/07/15 10:38:35;;;;;;;2.05;0.32;;;22.50;67.20;;;;;;5031388;28;20208;-43
2022/07/15 10:41:08;;;;;;;1.92;0.30;;;22.40;67.90;;;;;;5034404;28;20136;-44
2022/07/15 10:43:48;;;;;;;2.95;0.50;;;22.30;68.00;;;;;;5033100;28;21461;-43
2022/07/15 10:46:26;;;;;;;2.22;0.52;;;22.50;67.80;;;;;;5033022;28;20715;-43
2022/07/15 10:49:11;;;;;;;1.48;0.40;;;22.70;67.90;;;;;;5032534;28;20049;-43
2022/07/15 10:51:45;;;;;;;1.95;0.40;;;23.10;66.90;;;;;;5034772;28;20055;-43
2022/07/15 10:54:27;;;;;;;1.67;0.50;;;23.50;65.70;;;;;;5034712;28;20050;-44
2022/07/15 10:56:55;;;;;;;3.08;0.60;;;23.80;65.20;;;;;;5031863;28;20467;-43
2022/07/15 10:59:24;;;;;;;16.55;1.48;;;24.00;65.10;;;;;;5032938;28;20561;-43
2022/07/15 11:02:03;;;;;;;2.08;0.40;;;24.20;64.40;;;;;;5025478;28;20046;-44
2022/07/15 11:04:30;;;;;;;2.25;0.50;;;24.30;64.60;;;;;;5028599;28;20466;-44
2022/07/15 11:07:36;;;;;;;2.35;0.40;;;24.20;63.80;;;;;;5030844;28;20085;-44
2022/07/15 11:10:21;;;;;;;1.75;0.40;;;24.20;63.60;;;;;;5026766;28;20128;-43
2022/07/15 11:13:06;;;;;;;3.28;0.70;;;24.10;63.30;;;;;;5034522;28;20094;-43
2022/07/15 11:15:33;;;;;;;8.55;0.93;;;23.90;63.00;;;;;;5033266;28;20061;-43
2022/07/15 11:17:59;;;;;;;2.47;0.47;;;23.80;64.00;;;;;;5016598;28;20056;-44
2022/07/15 11:20:29;;;;;;;2.33;0.45;;;23.80;63.90;;;;;;5033060;28;20085;-44
2022/07/15 11:22:56;;;;;;;4.68;0.73;;;23.70;64.00;;;;;;5034256;28;20538;-43
2022/07/15 11:25:24;;;;;;;2.67;0.63;;;23.50;64.10;;;;;;5031253;28;20045;-43
2022/07/15 11:28:07;;;;;;;4.30;0.70;;;23.50;64.60;;;;;;5032874;28;20465;-42
2022/07/15 11:30:36;;;;;;;3.13;0.70;;;23.70;64.80;;;;;;5030839;28;20041;-43
2022/07/15 11:33:04;;;;;;;6.38;0.90;;;23.80;64.50;;;;;;5031332;28;20076;-43
2022/07/15 11:35:31;;;;;;;5.72;0.57;;;24.00;64.60;;;;;;5030542;28;20129;-43
2022/07/15 11:38:02;;;;;;;2.05;0.40;;;24.10;64.10;;;;;;5030690;28;20137;-43
2022/07/15 11:46:00;;;;;;;5.78;1.17;;;24.00;64.20;;;;;;5032285;28;20188;-44
2022/07/15 11:48:27;;;;;;;21.20;1.10;;;23.90;64.50;;;;;;5030440;28;20448;-43
2022/07/15 11:50:55;;;;;;;5.32;1.00;;;23.80;65.00;;;;;;5031805;28;20057;-43
2022/07/15 11:53:22;;;;;;;7.20;1.00;;;23.80;64.60;;;;;;5030980;28;20045;-43
2022/07/15 11:55:51;;;;;;;5.97;0.85;;;23.80;65.40;;;;;;5031783;28;20527;-42
2022/07/15 11:58:27;;;;;;;3.80;0.45;;;23.80;65.10;;;;;;5028578;28;20080;-42
2022/07/15 12:00:54;;;;;;;2.83;0.50;;;23.80;65.00;;;;;;5030058;28;20084;-43
2022/07/15 12:03:20;;;;;;;6.60;0.98;;;23.70;64.00;;;;;;5028356;28;20387;-43
2022/07/15 12:06:00;;;;;;;4.20;0.93;;;23.50;63.60;;;;;;5031031;28;20107;-43
2022/07/15 12:08:40;;;;;;;2.28;0.73;;;23.40;64.40;;;;;;5025583;28;20136;-43
2022/07/15 12:11:19;;;;;;;3.85;0.43;;;23.40;64.70;;;;;;5021302;28;20534;-43
2022/07/15 12:13:49;;;;;;;2.75;0.65;;;23.30;65.20;;;;;;5026541;28;20081;-42
2022/07/15 12:16:19;;;;;;;3.17;0.90;;;23.30;65.10;;;;;;5032408;28;20494;-43
2022/07/15 12:18:45;;;;;;;2.58;0.60;;;23.30;64.70;;;;;;5029511;28;20667;-44
2022/07/15 12:21:12;;;;;;;3.67;0.60;;;23.40;64.80;;;;;;5031459;28;20461;-45
2022/07/15 12:23:39;;;;;;;1.90;0.40;;;23.50;64.40;;;;;;5031306;28;20453;-42
2022/07/15 12:26:07;;;;;;;10.70;0.52;;;23.70;64.40;;;;;;5031936;28;20053;-42
2022/07/15 12:28:34;;;;;;;1.08;0.38;;;23.80;64.20;;;;;;5032901;28;20113;-42
2022/07/15 12:31:02;;;;;;;3.22;0.65;;;23.80;64.40;;;;;;5030954;28;20394;-43
2022/07/15 12:33:34;;;;;;;1.40;0.40;;;23.80;64.20;;;;;;5032852;28;20048;-42
2022/07/15 12:36:13;;;;;;;2.10;0.50;;;23.80;63.20;;;;;;5031626;28;20089;-43
2022/07/15 12:38:39;;;;;;;2.13;0.30;;;23.60;63.30;;;;;;5031143;28;20053;-44
2022/07/15 12:41:07;;;;;;;1.20;0.40;;;23.50;63.70;;;;;;5032461;28;20049;-43
2022/07/15 12:43:50;;;;;;;0.95;0.40;;;23.60;63.60;;;;;;5032284;28;20045;-44
2022/07/15 12:46:19;;;;;;;0.85;0.40;;;23.60;63.20;;;;;;5032924;28;20133;-43
2022/07/15 12:48:47;;;;;;;3.60;0.82;;;23.60;62.40;;;;;;5031842;28;20493;-42
2022/07/15 12:51:14;;;;;;;3.90;0.57;;;23.50;62.90;;;;;;5030941;28;20939;-42
2022/07/15 12:53:41;;;;;;;1.85;0.40;;;23.50;62.70;;;;;;5028302;28;20049;-43
2022/07/15 12:56:08;;;;;;;1.88;0.40;;;23.50;62.80;;;;;;5032374;28;20061;-43
2022/07/15 12:58:35;;;;;;;2.75;0.30;;;23.60;62.70;;;;;;5031950;28;20456;-45
2022/07/15 13:01:09;;;;;;;2.63;0.40;;;23.60;62.50;;;;;;5032170;28;20056;-42
2022/07/15 13:03:37;;;;;;;0.85;0.30;;;23.80;62.80;;;;;;5031331;28;20103;-43
2022/07/15 13:06:04;;;;;;;2.42;0.68;;;24.00;62.30;;;;;;5032134;28;20054;-43